sensor_id;sensor_type;location;lat;lon;timestamp;temperature;humidity
12481;DHT22;6305;48.398;11.762;2024-02-26T00:01:14;0.40;99.90
12481;DHT22;6305;48.398;11.762;2024-02-26T00:03:42;0.40;99.90
12481;DHT22;6305;48.398;11.762;2024-02-26T00:06:11;0.40;99.90
12481;DHT22;6305;48.398;11.762;2024-02-26T00:08:38;0.30;99.90
12481;DHT22;6305;48.398;11.762;2024-02-26T00:11:05;0.30;99.90
12481;DHT22;6305;48.398;11.762;2024-02-26T00:13:32;0.20;99.90
12481;DHT22;6305;48.398;11.762;2024-02-26T00:15:59;0.20;99.90
12481;DHT22;6305;48.398;11.762;2024-02-26T00:18:26;0.20;99.90
12481;DHT22;6305;48.398;11.762;2024-02-26T00:20:54;0.10;99.90
12481;DHT22;6305;48.398;11.762;2024-02-26T00:23:21;0.10;99.90
12481;DHT22;6305;48.398;11.762;2024-02-26T00:25:49;0.00;99.90
12481;DHT22;6305;48.398;11.762;2024-02-26T00:28:16;-0.10;99.90
12481;DHT22;6305;48.398;11.762;2024-02-26T00:30:43;-0.10;99.90
12481;DHT22;6305;48.398;11.762;2024-02-26T00:33:10;-0.10;99.90
12481;DHT22;6305;48.398;11.762;2024-02-26T00:35:37;-0.10;99.90
12481;DHT22;6305;48.398;11.762;2024-02-26T00:38:06;-0.20;99.90
12481;DHT22;6305;48.398;11.762;2024-02-26T00:40:32;-0.20;99.90
12481;DHT22;6305;48.398;11.762;2024-02-26T00:42:59;-0.20;99.90
12481;DHT22;6305;48.398;11.762;2024-02-26T00:45:27;-0.30;99.90
12481;DHT22;6305;48.398;11.762;2024-02-26T00:47:54;-0.30;99.90
12481;DHT22;6305;48.398;11.762;2024-02-26T00:50:21;-0.40;99.90
12481;DHT22;6305;48.398;11.762;2024-02-26T00:52:48;-0.40;99.90
12481;DHT22;6305;48.398;11.762;2024-02-26T00:55:17;-0.40;99.90
12481;DHT22;6305;48.398;11.762;2024-02-26T00:57:43;-0.40;99.90
12481;DHT22;6305;48.398;11.762;2024-02-26T01:00:11;-0.40;99.90
12481;DHT22;6305;48.398;11.762;2024-02-26T01:02:38;-0.50;99.90
12481;DHT22;6305;48.398;11.762;2024-02-26T01:05:07;-0.50;99.90
12481;DHT22;6305;48.398;11.762;2024-02-26T01:07:35;-0.60;99.90
12481;DHT22;6305;48.398;11.762;2024-02-26T01:10:03;-0.60;99.90
12481;DHT22;6305;48.398;11.762;2024-02-26T01:12:33;-0.50;99.90
12481;DHT22;6305;48.398;11.762;2024-02-26T01:15:00;-0.60;99.90
12481;DHT22;6305;48.398;11.762;2024-02-26T01:17:28;-0.60;99.90
12481;DHT22;6305;48.398;11.762;2024-02-26T01:19:55;-0.60;99.90
12481;DHT22;6305;48.398;11.762;2024-02-26T01:22:22;-0.70;99.90
12481;DHT22;6305;48.398;11.762;2024-02-26T01:24:49;-0.70;99.90
12481;DHT22;6305;48.398;11.762;2024-02-26T01:27:16;-0.80;99.90
12481;DHT22;6305;48.398;11.762;2024-02-26T01:29:45;-0.80;99.90
12481;DHT22;6305;48.398;11.762;2024-02-26T01:32:11;-0.80;99.90
12481;DHT22;6305;48.398;11.762;2024-02-26T01:34:39;-0.80;99.90
12481;DHT22;6305;48.398;11.762;2024-02-26T01:37:05;-0.80;99.90
12481;DHT22;6305;48.398;11.762;2024-02-26T01:39:32;-0.80;99.90
12481;DHT22;6305;48.398;11.762;2024-02-26T01:41:59;-0.90;99.90
12481;DHT22;6305;48.398;11.762;2024-02-26T01:44:26;-0.90;99.90
12481;DHT22;6305;48.398;11.762;2024-02-26T01:46:55;-0.90;99.90
12481;DHT22;6305;48.398;11.762;2024-02-26T01:49:22;-0.90;99.90
12481;DHT22;6305;48.398;11.762;2024-02-26T01:51:49;-0.90;99.90
12481;DHT22;6305;48.398;11.762;2024-02-26T01:54:16;-1.00;99.90
12481;DHT22;6305;48.398;11.762;2024-02-26T01:56:44;-1.00;99.90
12481;DHT22;6305;48.398;11.762;2024-02-26T01:59:11;-1.00;99.90
12481;DHT22;6305;48.398;11.762;2024-02-26T02:01:39;-1.00;99.90
12481;DHT22;6305;48.398;11.762;2024-02-26T02:04:09;-1.00;99.90
12481;DHT22;6305;48.398;11.762;2024-02-26T02:06:36;-1.00;99.90
12481;DHT22;6305;48.398;11.762;2024-02-26T02:09:04;-1.10;99.90
12481;DHT22;6305;48.398;11.762;2024-02-26T02:11:33;-1.10;99.90
12481;DHT22;6305;48.398;11.762;2024-02-26T02:14:00;-1.20;99.90
12481;DHT22;6305;48.398;11.762;2024-02-26T02:16:27;-1.20;99.90
12481;DHT22;6305;48.398;11.762;2024-02-26T02:18:54;-1.20;99.90
12481;DHT22;6305;48.398;11.762;2024-02-26T02:21:23;-1.20;99.90
12481;DHT22;6305;48.398;11.762;2024-02-26T02:23:50;-1.20;99.90
12481;DHT22;6305;48.398;11.762;2024-02-26T02:26:17;-1.30;99.90
12481;DHT22;6305;48.398;11.762;2024-02-26T02:28:45;-1.30;99.90
12481;DHT22;6305;48.398;11.762;2024-02-26T02:31:13;-1.30;99.90
12481;DHT22;6305;48.398;11.762;2024-02-26T02:33:40;-1.20;99.90
12481;DHT22;6305;48.398;11.762;2024-02-26T02:36:07;-1.20;99.90
12481;DHT22;6305;48.398;11.762;2024-02-26T02:38:37;-1.10;99.90
12481;DHT22;6305;48.398;11.762;2024-02-26T02:41:04;-1.00;99.90
12481;DHT22;6305;48.398;11.762;2024-02-26T02:43:31;-1.00;99.90
12481;DHT22;6305;48.398;11.762;2024-02-26T02:45:58;-1.00;99.90
12481;DHT22;6305;48.398;11.762;2024-02-26T02:48:25;-1.00;99.90
12481;DHT22;6305;48.398;11.762;2024-02-26T02:50:52;-1.10;99.90
12481;DHT22;6305;48.398;11.762;2024-02-26T02:53:19;-1.10;99.90
12481;DHT22;6305;48.398;11.762;2024-02-26T02:55:47;-1.10;99.90
12481;DHT22;6305;48.398;11.762;2024-02-26T02:58:15;-1.00;99.90
12481;DHT22;6305;48.398;11.762;2024-02-26T03:00:41;-1.00;99.90
12481;DHT22;6305;48.398;11.762;2024-02-26T03:03:08;-0.90;99.90
12481;DHT22;6305;48.398;11.762;2024-02-26T03:05:35;-0.80;99.90
12481;DHT22;6305;48.398;11.762;2024-02-26T03:08:03;-0.80;99.90
12481;DHT22;6305;48.398;11.762;2024-02-26T03:10:30;-0.70;99.90
12481;DHT22;6305;48.398;11.762;2024-02-26T03:12:58;-0.70;99.90
12481;DHT22;6305;48.398;11.762;2024-02-26T03:15:25;-0.80;99.90
12481;DHT22;6305;48.398;11.762;2024-02-26T03:17:51;-0.80;99.90
12481;DHT22;6305;48.398;11.762;2024-02-26T03:20:18;-0.90;99.90
12481;DHT22;6305;48.398;11.762;2024-02-26T03:22:45;-1.00;99.90
12481;DHT22;6305;48.398;11.762;2024-02-26T03:25:13;-1.00;99.90
12481;DHT22;6305;48.398;11.762;2024-02-26T03:27:39;-1.00;99.90
12481;DHT22;6305;48.398;11.762;2024-02-26T03:30:09;-1.00;99.90
12481;DHT22;6305;48.398;11.762;2024-02-26T03:32:36;-1.10;99.90
12481;DHT22;6305;48.398;11.762;2024-02-26T03:35:04;-1.10;99.90
12481;DHT22;6305;48.398;11.762;2024-02-26T03:37:31;-1.00;99.90
12481;DHT22;6305;48.398;11.762;2024-02-26T03:39:58;-1.00;99.90
12481;DHT22;6305;48.398;11.762;2024-02-26T03:42:26;-0.90;99.90
12481;DHT22;6305;48.398;11.762;2024-02-26T03:44:53;-0.70;99.90
12481;DHT22;6305;48.398;11.762;2024-02-26T03:47:21;-0.60;99.90
12481;DHT22;6305;48.398;11.762;2024-02-26T03:49:49;-0.50;99.90
12481;DHT22;6305;48.398;11.762;2024-02-26T03:52:16;-0.40;99.90
12481;DHT22;6305;48.398;11.762;2024-02-26T03:54:43;-0.30;99.90
12481;DHT22;6305;48.398;11.762;2024-02-26T03:57:09;-0.30;99.90
12481;DHT22;6305;48.398;11.762;2024-02-26T03:59:37;-0.20;99.90
12481;DHT22;6305;48.398;11.762;2024-02-26T04:02:05;-0.20;99.90
12481;DHT22;6305;48.398;11.762;2024-02-26T04:04:35;-0.10;99.90
12481;DHT22;6305;48.398;11.762;2024-02-26T04:07:02;0.00;99.90
12481;DHT22;6305;48.398;11.762;2024-02-26T04:09:31;0.10;99.90
12481;DHT22;6305;48.398;11.762;2024-02-26T04:11:58;0.10;99.90
12481;DHT22;6305;48.398;11.762;2024-02-26T04:14:25;0.20;99.90
12481;DHT22;6305;48.398;11.762;2024-02-26T04:16:51;0.30;99.90
12481;DHT22;6305;48.398;11.762;2024-02-26T04:19:20;0.30;99.90
12481;DHT22;6305;48.398;11.762;2024-02-26T04:21:48;0.30;99.90
12481;DHT22;6305;48.398;11.762;2024-02-26T04:24:15;0.40;99.90
12481;DHT22;6305;48.398;11.762;2024-02-26T04:26:42;0.40;99.90
12481;DHT22;6305;48.398;11.762;2024-02-26T04:29:09;0.40;99.90
12481;DHT22;6305;48.398;11.762;2024-02-26T04:31:37;0.40;99.90
12481;DHT22;6305;48.398;11.762;2024-02-26T04:34:05;0.50;99.90
12481;DHT22;6305;48.398;11.762;2024-02-26T04:36:32;0.50;99.90
12481;DHT22;6305;48.398;11.762;2024-02-26T04:39:00;0.50;99.90
12481;DHT22;6305;48.398;11.762;2024-02-26T04:41:27;0.60;99.90
12481;DHT22;6305;48.398;11.762;2024-02-26T04:43:54;0.60;99.90
12481;DHT22;6305;48.398;11.762;2024-02-26T04:46:21;0.60;99.90
12481;DHT22;6305;48.398;11.762;2024-02-26T04:48:48;0.60;99.90
12481;DHT22;6305;48.398;11.762;2024-02-26T04:51:15;0.70;99.90
12481;DHT22;6305;48.398;11.762;2024-02-26T04:53:42;0.70;99.90
12481;DHT22;6305;48.398;11.762;2024-02-26T04:56:10;0.70;99.90
12481;DHT22;6305;48.398;11.762;2024-02-26T04:58:38;0.70;99.90
12481;DHT22;6305;48.398;11.762;2024-02-26T05:01:05;0.80;99.90
12481;DHT22;6305;48.398;11.762;2024-02-26T05:03:32;0.80;99.90
12481;DHT22;6305;48.398;11.762;2024-02-26T05:06:00;0.80;99.90
12481;DHT22;6305;48.398;11.762;2024-02-26T05:08:27;0.80;99.90
12481;DHT22;6305;48.398;11.762;2024-02-26T05:10:54;0.80;99.90
12481;DHT22;6305;48.398;11.762;2024-02-26T05:13:23;0.80;99.90
12481;DHT22;6305;48.398;11.762;2024-02-26T05:15:50;0.80;99.90
12481;DHT22;6305;48.398;11.762;2024-02-26T05:18:18;0.80;99.90
12481;DHT22;6305;48.398;11.762;2024-02-26T05:20:45;0.80;99.90
12481;DHT22;6305;48.398;11.762;2024-02-26T05:23:11;0.70;99.90
12481;DHT22;6305;48.398;11.762;2024-02-26T05:25:38;0.70;99.90
12481;DHT22;6305;48.398;11.762;2024-02-26T05:28:06;0.70;99.90
12481;DHT22;6305;48.398;11.762;2024-02-26T05:30:34;0.60;99.90
12481;DHT22;6305;48.398;11.762;2024-02-26T05:33:01;0.50;99.90
12481;DHT22;6305;48.398;11.762;2024-02-26T05:35:28;0.40;99.90
12481;DHT22;6305;48.398;11.762;2024-02-26T05:37:55;0.40;99.90
12481;DHT22;6305;48.398;11.762;2024-02-26T05:40:22;0.40;99.90
12481;DHT22;6305;48.398;11.762;2024-02-26T05:42:48;0.30;99.90
12481;DHT22;6305;48.398;11.762;2024-02-26T05:45:15;0.30;99.90
12481;DHT22;6305;48.398;11.762;2024-02-26T05:47:44;0.30;99.90
12481;DHT22;6305;48.398;11.762;2024-02-26T05:50:11;0.20;99.90
12481;DHT22;6305;48.398;11.762;2024-02-26T05:52:40;0.20;99.90
12481;DHT22;6305;48.398;11.762;2024-02-26T05:55:08;0.20;99.90
12481;DHT22;6305;48.398;11.762;2024-02-26T05:57:35;0.20;99.90
12481;DHT22;6305;48.398;11.762;2024-02-26T06:00:03;0.10;99.90
12481;DHT22;6305;48.398;11.762;2024-02-26T06:02:39;0.10;99.90
12481;DHT22;6305;48.398;11.762;2024-02-26T06:05:08;0.00;99.90
12481;DHT22;6305;48.398;11.762;2024-02-26T06:07:35;0.00;99.90
12481;DHT22;6305;48.398;11.762;2024-02-26T06:10:02;-0.10;99.90
12481;DHT22;6305;48.398;11.762;2024-02-26T06:12:30;-0.10;99.90
12481;DHT22;6305;48.398;11.762;2024-02-26T06:14:58;-0.10;99.90
12481;DHT22;6305;48.398;11.762;2024-02-26T06:17:26;0.00;99.90
12481;DHT22;6305;48.398;11.762;2024-02-26T06:19:54;0.00;99.90
12481;DHT22;6305;48.398;11.762;2024-02-26T06:22:22;0.10;99.90
12481;DHT22;6305;48.398;11.762;2024-02-26T06:24:49;0.20;99.90
12481;DHT22;6305;48.398;11.762;2024-02-26T06:27:16;0.40;99.90
12481;DHT22;6305;48.398;11.762;2024-02-26T06:29:43;0.50;99.90
12481;DHT22;6305;48.398;11.762;2024-02-26T06:32:10;0.60;99.90
12481;DHT22;6305;48.398;11.762;2024-02-26T06:34:37;0.60;99.90
12481;DHT22;6305;48.398;11.762;2024-02-26T06:37:07;0.80;99.90
12481;DHT22;6305;48.398;11.762;2024-02-26T06:39:35;1.10;99.90
12481;DHT22;6305;48.398;11.762;2024-02-26T06:42:04;1.30;99.90
12481;DHT22;6305;48.398;11.762;2024-02-26T06:44:31;1.60;99.90
12481;DHT22;6305;48.398;11.762;2024-02-26T06:46:58;1.80;99.90
12481;DHT22;6305;48.398;11.762;2024-02-26T06:49:25;2.00;99.90
12481;DHT22;6305;48.398;11.762;2024-02-26T06:51:52;2.10;99.90
12481;DHT22;6305;48.398;11.762;2024-02-26T06:54:19;2.20;99.90
12481;DHT22;6305;48.398;11.762;2024-02-26T06:56:48;2.20;99.90
12481;DHT22;6305;48.398;11.762;2024-02-26T06:59:15;2.30;99.90
12481;DHT22;6305;48.398;11.762;2024-02-26T07:01:42;2.40;99.90
12481;DHT22;6305;48.398;11.762;2024-02-26T07:04:09;2.60;99.90
12481;DHT22;6305;48.398;11.762;2024-02-26T07:06:36;2.70;99.90
12481;DHT22;6305;48.398;11.762;2024-02-26T07:09:03;2.80;99.90
12481;DHT22;6305;48.398;11.762;2024-02-26T07:11:30;2.90;99.90
12481;DHT22;6305;48.398;11.762;2024-02-26T07:13:58;3.00;99.90
12481;DHT22;6305;48.398;11.762;2024-02-26T07:16:26;3.20;99.90
12481;DHT22;6305;48.398;11.762;2024-02-26T07:18:53;3.30;99.90
12481;DHT22;6305;48.398;11.762;2024-02-26T07:21:20;3.50;99.90
12481;DHT22;6305;48.398;11.762;2024-02-26T07:23:48;3.80;99.90
12481;DHT22;6305;48.398;11.762;2024-02-26T07:26:15;4.20;99.90
12481;DHT22;6305;48.398;11.762;2024-02-26T07:28:44;4.50;99.90
12481;DHT22;6305;48.398;11.762;2024-02-26T07:31:12;4.70;99.90
12481;DHT22;6305;48.398;11.762;2024-02-26T07:33:39;5.00;99.90
12481;DHT22;6305;48.398;11.762;2024-02-26T07:36:06;5.20;99.90
12481;DHT22;6305;48.398;11.762;2024-02-26T07:38:33;5.70;99.90
12481;DHT22;6305;48.398;11.762;2024-02-26T07:41:01;5.90;99.90
12481;DHT22;6305;48.398;11.762;2024-02-26T07:43:28;6.00;99.90
12481;DHT22;6305;48.398;11.762;2024-02-26T07:45:55;6.20;99.90
12481;DHT22;6305;48.398;11.762;2024-02-26T07:48:23;6.50;99.90
12481;DHT22;6305;48.398;11.762;2024-02-26T07:50:50;6.70;99.90
12481;DHT22;6305;48.398;11.762;2024-02-26T07:53:17;6.80;99.90
12481;DHT22;6305;48.398;11.762;2024-02-26T07:55:44;6.80;99.90
12481;DHT22;6305;48.398;11.762;2024-02-26T07:58:11;6.90;99.90
12481;DHT22;6305;48.398;11.762;2024-02-26T08:00:38;7.00;99.90
12481;DHT22;6305;48.398;11.762;2024-02-26T08:03:05;7.20;99.90
12481;DHT22;6305;48.398;11.762;2024-02-26T08:05:34;7.50;99.90
12481;DHT22;6305;48.398;11.762;2024-02-26T08:08:01;8.00;99.90
12481;DHT22;6305;48.398;11.762;2024-02-26T08:10:28;8.60;99.90
12481;DHT22;6305;48.398;11.762;2024-02-26T08:12:55;9.40;99.90
12481;DHT22;6305;48.398;11.762;2024-02-26T08:15:30;10.30;99.90
12481;DHT22;6305;48.398;11.762;2024-02-26T08:17:57;10.50;99.90
12481;DHT22;6305;48.398;11.762;2024-02-26T08:20:24;10.30;99.90
12481;DHT22;6305;48.398;11.762;2024-02-26T08:22:52;9.90;99.90
12481;DHT22;6305;48.398;11.762;2024-02-26T08:25:19;9.60;99.90
12481;DHT22;6305;48.398;11.762;2024-02-26T08:27:46;9.40;99.90
12481;DHT22;6305;48.398;11.762;2024-02-26T08:30:14;9.20;99.90
12481;DHT22;6305;48.398;11.762;2024-02-26T08:32:42;9.00;99.90
12481;DHT22;6305;48.398;11.762;2024-02-26T08:35:09;9.00;99.90
12481;DHT22;6305;48.398;11.762;2024-02-26T08:37:37;8.90;99.90
12481;DHT22;6305;48.398;11.762;2024-02-26T08:40:06;8.90;99.90
12481;DHT22;6305;48.398;11.762;2024-02-26T08:42:33;8.90;99.90
12481;DHT22;6305;48.398;11.762;2024-02-26T08:45:00;9.20;99.90
12481;DHT22;6305;48.398;11.762;2024-02-26T08:47:28;9.70;99.90
12481;DHT22;6305;48.398;11.762;2024-02-26T08:49:55;10.20;99.90
12481;DHT22;6305;48.398;11.762;2024-02-26T08:52:22;10.50;99.90
12481;DHT22;6305;48.398;11.762;2024-02-26T08:54:49;10.80;99.90
12481;DHT22;6305;48.398;11.762;2024-02-26T08:57:18;11.00;99.90
12481;DHT22;6305;48.398;11.762;2024-02-26T08:59:45;11.00;99.90
12481;DHT22;6305;48.398;11.762;2024-02-26T09:02:11;10.90;99.90
12481;DHT22;6305;48.398;11.762;2024-02-26T09:04:38;10.70;99.90
12481;DHT22;6305;48.398;11.762;2024-02-26T09:07:05;10.60;99.90
12481;DHT22;6305;48.398;11.762;2024-02-26T09:09:32;10.90;99.90
12481;DHT22;6305;48.398;11.762;2024-02-26T09:11:59;11.00;99.90
12481;DHT22;6305;48.398;11.762;2024-02-26T09:14:27;11.30;99.90
12481;DHT22;6305;48.398;11.762;2024-02-26T09:16:54;11.50;99.90
12481;DHT22;6305;48.398;11.762;2024-02-26T09:19:23;11.60;99.90
12481;DHT22;6305;48.398;11.762;2024-02-26T09:21:51;11.50;99.90
12481;DHT22;6305;48.398;11.762;2024-02-26T09:24:19;11.40;99.90
12481;DHT22;6305;48.398;11.762;2024-02-26T09:26:46;11.40;99.90
12481;DHT22;6305;48.398;11.762;2024-02-26T09:29:13;11.20;99.90
12481;DHT22;6305;48.398;11.762;2024-02-26T09:31:41;11.10;99.90
12481;DHT22;6305;48.398;11.762;2024-02-26T09:34:09;11.20;99.90
12481;DHT22;6305;48.398;11.762;2024-02-26T09:36:36;11.60;99.90
12481;DHT22;6305;48.398;11.762;2024-02-26T09:39:03;12.00;99.90
12481;DHT22;6305;48.398;11.762;2024-02-26T09:41:30;12.50;99.30
12481;DHT22;6305;48.398;11.762;2024-02-26T09:43:58;13.80;97.90
12481;DHT22;6305;48.398;11.762;2024-02-26T09:46:26;14.90;92.50
12481;DHT22;6305;48.398;11.762;2024-02-26T09:48:54;15.10;83.70
12481;DHT22;6305;48.398;11.762;2024-02-26T09:51:22;15.40;76.70
12481;DHT22;6305;48.398;11.762;2024-02-26T09:53:51;15.50;73.90
12481;DHT22;6305;48.398;11.762;2024-02-26T09:56:19;15.30;72.00
12481;DHT22;6305;48.398;11.762;2024-02-26T09:58:46;15.70;72.70
12481;DHT22;6305;48.398;11.762;2024-02-26T10:01:18;16.40;72.90
12481;DHT22;6305;48.398;11.762;2024-02-26T10:03:49;18.00;71.50
12481;DHT22;6305;48.398;11.762;2024-02-26T10:06:19;19.30;62.90
12481;DHT22;6305;48.398;11.762;2024-02-26T10:08:47;20.60;58.10
12481;DHT22;6305;48.398;11.762;2024-02-26T10:11:15;21.20;52.50
12481;DHT22;6305;48.398;11.762;2024-02-26T10:13:42;22.10;52.00
12481;DHT22;6305;48.398;11.762;2024-02-26T10:16:09;23.30;49.90
12481;DHT22;6305;48.398;11.762;2024-02-26T10:18:46;24.70;44.60
12481;DHT22;6305;48.398;11.762;2024-02-26T10:21:14;25.40;42.80
12481;DHT22;6305;48.398;11.762;2024-02-26T10:23:45;26.10;40.70
12481;DHT22;6305;48.398;11.762;2024-02-26T10:26:14;26.70;40.00
12481;DHT22;6305;48.398;11.762;2024-02-26T10:28:42;27.40;39.20
12481;DHT22;6305;48.398;11.762;2024-02-26T10:31:10;28.30;37.10
12481;DHT22;6305;48.398;11.762;2024-02-26T10:33:37;27.80;36.20
12481;DHT22;6305;48.398;11.762;2024-02-26T10:36:06;27.00;36.40
12481;DHT22;6305;48.398;11.762;2024-02-26T10:38:33;25.90;36.20
12481;DHT22;6305;48.398;11.762;2024-02-26T10:41:03;24.70;36.70
12481;DHT22;6305;48.398;11.762;2024-02-26T10:43:30;23.50;37.10
12481;DHT22;6305;48.398;11.762;2024-02-26T10:45:56;22.50;39.20
12481;DHT22;6305;48.398;11.762;2024-02-26T10:48:24;21.50;40.20
12481;DHT22;6305;48.398;11.762;2024-02-26T10:50:51;20.50;41.50
12481;DHT22;6305;48.398;11.762;2024-02-26T10:53:20;19.70;42.90
12481;DHT22;6305;48.398;11.762;2024-02-26T10:55:49;18.80;44.10
12481;DHT22;6305;48.398;11.762;2024-02-26T10:58:20;18.30;46.50
12481;DHT22;6305;48.398;11.762;2024-02-26T11:00:49;18.30;47.40
12481;DHT22;6305;48.398;11.762;2024-02-26T11:03:18;18.40;47.90
12481;DHT22;6305;48.398;11.762;2024-02-26T11:05:46;18.50;48.00
12481;DHT22;6305;48.398;11.762;2024-02-26T11:08:15;18.40;47.80
12481;DHT22;6305;48.398;11.762;2024-02-26T11:10:42;18.20;47.70
12481;DHT22;6305;48.398;11.762;2024-02-26T11:13:12;17.90;48.70
12481;DHT22;6305;48.398;11.762;2024-02-26T11:15:43;17.50;49.50
12481;DHT22;6305;48.398;11.762;2024-02-26T11:18:12;17.40;49.70
12481;DHT22;6305;48.398;11.762;2024-02-26T11:20:40;17.30;51.40
12481;DHT22;6305;48.398;11.762;2024-02-26T11:23:08;17.50;50.80
12481;DHT22;6305;48.398;11.762;2024-02-26T11:25:35;18.00;51.10
12481;DHT22;6305;48.398;11.762;2024-02-26T11:28:05;18.40;50.10
12481;DHT22;6305;48.398;11.762;2024-02-26T11:30:35;18.50;49.30
12481;DHT22;6305;48.398;11.762;2024-02-26T11:33:06;18.70;48.90
12481;DHT22;6305;48.398;11.762;2024-02-26T11:35:34;18.90;48.90
12481;DHT22;6305;48.398;11.762;2024-02-26T11:38:02;19.10;48.50
12481;DHT22;6305;48.398;11.762;2024-02-26T11:40:32;19.40;48.70
12481;DHT22;6305;48.398;11.762;2024-02-26T11:42:59;19.90;47.80
12481;DHT22;6305;48.398;11.762;2024-02-26T11:45:50;20.70;47.50
12481;DHT22;6305;48.398;11.762;2024-02-26T11:48:23;22.20;47.10
12481;DHT22;6305;48.398;11.762;2024-02-26T11:50:51;22.90;43.50
12481;DHT22;6305;48.398;11.762;2024-02-26T11:53:23;22.60;42.00
12481;DHT22;6305;48.398;11.762;2024-02-26T11:56:20;22.10;42.00
12481;DHT22;6305;48.398;11.762;2024-02-26T11:58:47;22.10;42.60
12481;DHT22;6305;48.398;11.762;2024-02-26T12:01:37;23.20;42.60
12481;DHT22;6305;48.398;11.762;2024-02-26T12:04:06;24.50;40.50
12481;DHT22;6305;48.398;11.762;2024-02-26T12:06:41;25.10;38.60
12481;DHT22;6305;48.398;11.762;2024-02-26T12:09:09;25.90;38.80
12481;DHT22;6305;48.398;11.762;2024-02-26T12:11:38;26.80;37.10
12481;DHT22;6305;48.398;11.762;2024-02-26T12:14:07;27.80;36.20
12481;DHT22;6305;48.398;11.762;2024-02-26T12:16:38;28.00;33.60
12481;DHT22;6305;48.398;11.762;2024-02-26T12:19:08;28.10;34.00
12481;DHT22;6305;48.398;11.762;2024-02-26T12:21:36;28.40;33.80
12481;DHT22;6305;48.398;11.762;2024-02-26T12:24:13;28.10;32.40
12481;DHT22;6305;48.398;11.762;2024-02-26T12:26:41;27.50;32.70
12481;DHT22;6305;48.398;11.762;2024-02-26T12:29:08;28.10;33.50
12481;DHT22;6305;48.398;11.762;2024-02-26T12:31:37;29.10;32.70
12481;DHT22;6305;48.398;11.762;2024-02-26T12:34:06;28.70;31.50
12481;DHT22;6305;48.398;11.762;2024-02-26T12:36:35;28.70;31.80
12481;DHT22;6305;48.398;11.762;2024-02-26T12:39:02;28.20;30.90
12481;DHT22;6305;48.398;11.762;2024-02-26T12:41:31;27.30;32.80
12481;DHT22;6305;48.398;11.762;2024-02-26T12:43:58;26.60;34.30
12481;DHT22;6305;48.398;11.762;2024-02-26T12:46:26;25.80;34.50
12481;DHT22;6305;48.398;11.762;2024-02-26T12:48:55;26.50;35.20
12481;DHT22;6305;48.398;11.762;2024-02-26T12:51:25;27.30;33.70
12481;DHT22;6305;48.398;11.762;2024-02-26T12:53:54;26.80;33.30
12481;DHT22;6305;48.398;11.762;2024-02-26T12:56:22;25.80;34.30
12481;DHT22;6305;48.398;11.762;2024-02-26T12:58:50;24.90;35.60
12481;DHT22;6305;48.398;11.762;2024-02-26T13:01:21;23.90;36.20
12481;DHT22;6305;48.398;11.762;2024-02-26T13:03:49;23.00;38.60
12481;DHT22;6305;48.398;11.762;2024-02-26T13:06:17;23.40;38.70
12481;DHT22;6305;48.398;11.762;2024-02-26T13:08:46;23.30;38.20
12481;DHT22;6305;48.398;11.762;2024-02-26T13:11:13;22.20;38.90
12481;DHT22;6305;48.398;11.762;2024-02-26T13:13:40;21.50;40.40
12481;DHT22;6305;48.398;11.762;2024-02-26T13:16:10;21.30;41.40
12481;DHT22;6305;48.398;11.762;2024-02-26T13:18:40;22.50;42.60
12481;DHT22;6305;48.398;11.762;2024-02-26T13:21:09;24.90;40.90
12481;DHT22;6305;48.398;11.762;2024-02-26T13:23:37;26.70;36.40
12481;DHT22;6305;48.398;11.762;2024-02-26T13:26:05;26.90;33.90
12481;DHT22;6305;48.398;11.762;2024-02-26T13:28:33;26.30;34.20
12481;DHT22;6305;48.398;11.762;2024-02-26T13:31:01;26.40;34.70
12481;DHT22;6305;48.398;11.762;2024-02-26T13:33:31;27.00;34.40
12481;DHT22;6305;48.398;11.762;2024-02-26T13:35:59;28.00;33.20
12481;DHT22;6305;48.398;11.762;2024-02-26T13:38:27;28.90;32.40
12481;DHT22;6305;48.398;11.762;2024-02-26T13:40:54;29.30;28.90
12481;DHT22;6305;48.398;11.762;2024-02-26T13:43:23;29.20;29.20
12481;DHT22;6305;48.398;11.762;2024-02-26T13:45:50;29.60;29.40
12481;DHT22;6305;48.398;11.762;2024-02-26T13:48:17;29.90;29.10
12481;DHT22;6305;48.398;11.762;2024-02-26T13:50:44;30.10;28.70
12481;DHT22;6305;48.398;11.762;2024-02-26T13:53:12;29.40;28.90
12481;DHT22;6305;48.398;11.762;2024-02-26T13:55:40;27.40;29.10
12481;DHT22;6305;48.398;11.762;2024-02-26T13:58:08;25.40;29.90
12481;DHT22;6305;48.398;11.762;2024-02-26T14:00:39;23.60;32.10
12481;DHT22;6305;48.398;11.762;2024-02-26T14:03:07;21.70;34.30
12481;DHT22;6305;48.398;11.762;2024-02-26T14:05:34;20.40;37.90
12481;DHT22;6305;48.398;11.762;2024-02-26T14:08:01;20.10;39.60
12481;DHT22;6305;48.398;11.762;2024-02-26T14:10:28;20.00;40.60
12481;DHT22;6305;48.398;11.762;2024-02-26T14:12:56;19.90;40.90
12481;DHT22;6305;48.398;11.762;2024-02-26T14:15:22;19.90;41.50
12481;DHT22;6305;48.398;11.762;2024-02-26T14:17:52;19.70;42.10
12481;DHT22;6305;48.398;11.762;2024-02-26T14:20:22;19.20;42.30
12481;DHT22;6305;48.398;11.762;2024-02-26T14:22:49;18.50;43.20
12481;DHT22;6305;48.398;11.762;2024-02-26T14:25:17;18.00;44.70
12481;DHT22;6305;48.398;11.762;2024-02-26T14:27:43;17.90;45.30
12481;DHT22;6305;48.398;11.762;2024-02-26T14:30:11;18.10;45.40
12481;DHT22;6305;48.398;11.762;2024-02-26T14:32:38;18.60;45.30
12481;DHT22;6305;48.398;11.762;2024-02-26T14:35:08;19.40;44.30
12481;DHT22;6305;48.398;11.762;2024-02-26T14:37:36;20.00;43.50
12481;DHT22;6305;48.398;11.762;2024-02-26T14:40:03;20.20;41.90
12481;DHT22;6305;48.398;11.762;2024-02-26T14:42:31;20.10;41.90
12481;DHT22;6305;48.398;11.762;2024-02-26T14:44:58;20.00;41.20
12481;DHT22;6305;48.398;11.762;2024-02-26T14:47:25;19.80;41.20
12481;DHT22;6305;48.398;11.762;2024-02-26T14:49:52;19.20;41.70
12481;DHT22;6305;48.398;11.762;2024-02-26T14:52:20;18.50;42.30
12481;DHT22;6305;48.398;11.762;2024-02-26T14:54:48;17.60;43.20
12481;DHT22;6305;48.398;11.762;2024-02-26T14:57:17;16.80;44.30
12481;DHT22;6305;48.398;11.762;2024-02-26T14:59:44;16.10;45.60
12481;DHT22;6305;48.398;11.762;2024-02-26T15:02:11;15.50;46.60
12481;DHT22;6305;48.398;11.762;2024-02-26T15:04:38;15.00;47.40
12481;DHT22;6305;48.398;11.762;2024-02-26T15:07:05;14.70;48.60
12481;DHT22;6305;48.398;11.762;2024-02-26T15:09:33;14.50;49.50
12481;DHT22;6305;48.398;11.762;2024-02-26T15:12:01;14.20;50.20
12481;DHT22;6305;48.398;11.762;2024-02-26T15:14:28;14.00;50.70
12481;DHT22;6305;48.398;11.762;2024-02-26T15:16:55;13.70;51.50
12481;DHT22;6305;48.398;11.762;2024-02-26T15:19:22;13.50;52.40
12481;DHT22;6305;48.398;11.762;2024-02-26T15:21:49;13.40;53.50
12481;DHT22;6305;48.398;11.762;2024-02-26T15:24:16;13.20;54.40
12481;DHT22;6305;48.398;11.762;2024-02-26T15:26:45;13.00;55.10
12481;DHT22;6305;48.398;11.762;2024-02-26T15:29:13;12.80;56.30
12481;DHT22;6305;48.398;11.762;2024-02-26T15:31:40;12.60;57.20
12481;DHT22;6305;48.398;11.762;2024-02-26T15:34:06;12.40;58.50
12481;DHT22;6305;48.398;11.762;2024-02-26T15:36:34;12.20;59.70
12481;DHT22;6305;48.398;11.762;2024-02-26T15:39:02;12.00;61.50